sensor_id;sensor_type;location;lat;lon;timestamp;temperature;humidity
12123;DHT22;6125;59.628;17.852;2022-12-10T12:00:52;-2.80;99.90
12123;DHT22;6125;59.628;17.852;2022-12-10T12:07:02;-2.90;99.90
12123;DHT22;6125;59.628;17.852;2022-12-10T12:09:42;-2.80;99.90
12123;DHT22;6125;59.628;17.852;2022-12-10T12:12:19;-2.90;99.90
12123;DHT22;6125;59.628;17.852;2022-12-10T12:14:52;-2.90;99.90
12123;DHT22;6125;59.628;17.852;2022-12-10T12:17:25;-2.90;99.90
12123;DHT22;6125;59.628;17.852;2022-12-10T12:19:56;-2.90;99.90
12123;DHT22;6125;59.628;17.852;2022-12-10T12:22:26;-2.90;99.90
12123;DHT22;6125;59.628;17.852;2022-12-10T12:25:14;-2.90;99.90
12123;DHT22;6125;59.628;17.852;2022-12-10T12:27:50;-2.90;99.90
12123;DHT22;6125;59.628;17.852;2022-12-10T12:30:20;-2.90;99.90
12123;DHT22;6125;59.628;17.852;2022-12-10T12:32:54;-2.90;99.90
12123;DHT22;6125;59.628;17.852;2022-12-10T12:35:38;-2.90;99.90
12123;DHT22;6125;59.628;17.852;2022-12-10T12:38:23;-2.90;99.90
12123;DHT22;6125;59.628;17.852;2022-12-10T12:40:54;-2.90;99.90
12123;DHT22;6125;59.628;17.852;2022-12-10T12:43:29;-2.90;99.90
12123;DHT22;6125;59.628;17.852;2022-12-10T12:45:59;-2.90;99.90
12123;DHT22;6125;59.628;17.852;2022-12-10T12:48:32;-2.90;99.90
12123;DHT22;6125;59.628;17.852;2022-12-10T12:51:04;-2.90;99.90
12123;DHT22;6125;59.628;17.852;2022-12-10T12:53:34;-2.80;99.90
12123;DHT22;6125;59.628;17.852;2022-12-10T12:56:05;-2.90;99.90
12123;DHT22;6125;59.628;17.852;2022-12-10T12:58:41;-2.90;99.90
12123;DHT22;6125;59.628;17.852;2022-12-10T13:01:20;-2.90;99.90
12123;DHT22;6125;59.628;17.852;2022-12-10T13:03:50;-2.90;99.90
12123;DHT22;6125;59.628;17.852;2022-12-10T13:06:21;-2.80;99.90
12123;DHT22;6125;59.628;17.852;2022-12-10T13:08:52;-2.80;99.90
12123;DHT22;6125;59.628;17.852;2022-12-10T13:11:33;-2.80;99.90
12123;DHT22;6125;59.628;17.852;2022-12-10T13:14:31;-2.80;99.90
12123;DHT22;6125;59.628;17.852;2022-12-10T13:22:54;-2.90;99.90
12123;DHT22;6125;59.628;17.852;2022-12-10T13:25:38;-2.90;99.90
12123;DHT22;6125;59.628;17.852;2022-12-10T13:28:20;-2.90;99.90
12123;DHT22;6125;59.628;17.852;2022-12-10T13:31:07;-3.00;99.90
12123;DHT22;6125;59.628;17.852;2022-12-10T13:33:46;-3.00;99.90
12123;DHT22;6125;59.628;17.852;2022-12-10T13:36:20;-3.10;99.90
12123;DHT22;6125;59.628;17.852;2022-12-10T13:42:27;-3.10;99.90
12123;DHT22;6125;59.628;17.852;2022-12-10T13:45:32;-3.20;99.90
12123;DHT22;6125;59.628;17.852;2022-12-10T13:48:25;-3.20;99.90
12123;DHT22;6125;59.628;17.852;2022-12-10T13:51:11;-3.20;99.90
12123;DHT22;6125;59.628;17.852;2022-12-10T13:53:50;-3.20;99.90
12123;DHT22;6125;59.628;17.852;2022-12-10T13:56:27;-3.30;99.90
12123;DHT22;6125;59.628;17.852;2022-12-10T13:59:06;-3.30;99.90
12123;DHT22;6125;59.628;17.852;2022-12-10T14:01:44;-3.30;99.90
12123;DHT22;6125;59.628;17.852;2022-12-10T14:04:32;-3.40;99.90
12123;DHT22;6125;59.628;17.852;2022-12-10T14:07:02;-3.40;99.90
12123;DHT22;6125;59.628;17.852;2022-12-10T14:09:52;-3.40;99.90
12123;DHT22;6125;59.628;17.852;2022-12-10T14:12:26;-3.40;99.90
12123;DHT22;6125;59.628;17.852;2022-12-10T14:14:57;-3.50;99.90
12123;DHT22;6125;59.628;17.852;2022-12-10T14:17:31;-3.50;99.90
12123;DHT22;6125;59.628;17.852;2022-12-10T14:20:00;-3.50;99.90
12123;DHT22;6125;59.628;17.852;2022-12-10T14:25:58;-3.50;99.90
12123;DHT22;6125;59.628;17.852;2022-12-10T14:28:25;-3.50;99.90
12123;DHT22;6125;59.628;17.852;2022-12-10T14:30:53;-3.50;99.90
12123;DHT22;6125;59.628;17.852;2022-12-10T14:33:22;-3.50;99.90
12123;DHT22;6125;59.628;17.852;2022-12-10T14:35:53;-3.50;99.90
12123;DHT22;6125;59.628;17.852;2022-12-10T14:38:35;-3.60;99.90
12123;DHT22;6125;59.628;17.852;2022-12-10T14:41:04;-3.60;99.90
12123;DHT22;6125;59.628;17.852;2022-12-10T14:43:35;-3.60;99.90
12123;DHT22;6125;59.628;17.852;2022-12-10T14:46:04;-3.70;99.90
12123;DHT22;6125;59.628;17.852;2022-12-10T14:48:39;-3.70;99.90
12123;DHT22;6125;59.628;17.852;2022-12-10T14:51:13;-3.70;99.90
12123;DHT22;6125;59.628;17.852;2022-12-10T14:53:42;-3.70;99.90
12123;DHT22;6125;59.628;17.852;2022-12-10T14:56:15;-3.80;99.90
12123;DHT22;6125;59.628;17.852;2022-12-10T14:58:46;-3.80;99.90
12123;DHT22;6125;59.628;17.852;2022-12-10T15:01:26;-3.80;99.90
12123;DHT22;6125;59.628;17.852;2022-12-10T15:03:55;-3.80;99.90
12123;DHT22;6125;59.628;17.852;2022-12-10T15:06:23;-3.80;99.90
12123;DHT22;6125;59.628;17.852;2022-12-10T15:08:54;-3.80;99.90
12123;DHT22;6125;59.628;17.852;2022-12-10T15:11:24;-3.80;99.90
12123;DHT22;6125;59.628;17.852;2022-12-10T15:13:54;-3.80;99.90
12123;DHT22;6125;59.628;17.852;2022-12-10T15:16:29;-3.80;99.90
12123;DHT22;6125;59.628;17.852;2022-12-10T15:19:07;-3.90;99.90
12123;DHT22;6125;59.628;17.852;2022-12-10T15:22:15;-3.90;99.90
12123;DHT22;6125;59.628;17.852;2022-12-10T15:24:44;-3.90;99.90
12123;DHT22;6125;59.628;17.852;2022-12-10T15:27:17;-4.00;99.90
12123;DHT22;6125;59.628;17.852;2022-12-10T15:29:44;-4.00;99.90
12123;DHT22;6125;59.628;17.852;2022-12-10T15:32:13;-4.00;99.90
12123;DHT22;6125;59.628;17.852;2022-12-10T15:34:44;-4.00;99.90
12123;DHT22;6125;59.628;17.852;2022-12-10T15:37:26;-4.00;99.90
12123;DHT22;6125;59.628;17.852;2022-12-10T15:39:55;-4.00;99.90
12123;DHT22;6125;59.628;17.852;2022-12-10T15:42:48;-4.00;99.90
12123;DHT22;6125;59.628;17.852;2022-12-10T15:45:25;-4.00;99.90
12123;DHT22;6125;59.628;17.852;2022-12-10T15:47:54;-4.00;99.90
12123;DHT22;6125;59.628;17.852;2022-12-10T15:50:23;-4.00;99.90
12123;DHT22;6125;59.628;17.852;2022-12-10T15:52:52;-4.00;99.90
12123;DHT22;6125;59.628;17.852;2022-12-10T15:55:19;-4.00;99.90
12123;DHT22;6125;59.628;17.852;2022-12-10T15:57:45;-4.00;99.90
12123;DHT22;6125;59.628;17.852;2022-12-10T16:00:18;-4.00;99.90
12123;DHT22;6125;59.628;17.852;2022-12-10T16:02:49;-4.00;99.90
12123;DHT22;6125;59.628;17.852;2022-12-10T16:05:19;-3.90;99.90
12123;DHT22;6125;59.628;17.852;2022-12-10T16:08:42;-3.90;99.90
12123;DHT22;6125;59.628;17.852;2022-12-10T16:11:15;-4.00;99.90
12123;DHT22;6125;59.628;17.852;2022-12-10T16:13:48;-4.00;99.90
12123;DHT22;6125;59.628;17.852;2022-12-10T16:16:19;-4.00;99.90
12123;DHT22;6125;59.628;17.852;2022-12-10T16:18:46;-4.00;99.90
12123;DHT22;6125;59.628;17.852;2022-12-10T16:21:13;-4.00;99.90
12123;DHT22;6125;59.628;17.852;2022-12-10T16:23:40;-4.00;99.90
12123;DHT22;6125;59.628;17.852;2022-12-10T16:26:13;-4.00;99.90
12123;DHT22;6125;59.628;17.852;2022-12-10T16:28:40;-4.00;99.90
12123;DHT22;6125;59.628;17.852;2022-12-10T16:31:10;-3.90;99.90
12123;DHT22;6125;59.628;17.852;2022-12-10T16:33:38;-4.00;99.90
12123;DHT22;6125;59.628;17.852;2022-12-10T16:36:06;-4.00;99.90
12123;DHT22;6125;59.628;17.852;2022-12-10T16:38:33;-4.00;99.90
12123;DHT22;6125;59.628;17.852;2022-12-10T16:41:00;-4.00;99.90
12123;DHT22;6125;59.628;17.852;2022-12-10T16:43:28;-4.00;99.90
12123;DHT22;6125;59.628;17.852;2022-12-10T16:45:56;-4.00;99.90
12123;DHT22;6125;59.628;17.852;2022-12-10T16:48:23;-4.00;99.90
12123;DHT22;6125;59.628;17.852;2022-12-10T16:50:52;-4.00;99.90
12123;DHT22;6125;59.628;17.852;2022-12-10T16:53:25;-4.00;99.90
12123;DHT22;6125;59.628;17.852;2022-12-10T16:55:52;-4.00;99.90
12123;DHT22;6125;59.628;17.852;2022-12-10T16:58:19;-4.00;99.90
12123;DHT22;6125;59.628;17.852;2022-12-10T17:00:48;-4.00;99.90
12123;DHT22;6125;59.628;17.852;2022-12-10T17:03:16;-4.10;99.90
12123;DHT22;6125;59.628;17.852;2022-12-10T17:05:48;-4.10;99.90
12123;DHT22;6125;59.628;17.852;2022-12-10T17:08:18;-4.10;99.90
12123;DHT22;6125;59.628;17.852;2022-12-10T17:10:45;-4.10;99.90
12123;DHT22;6125;59.628;17.852;2022-12-10T17:13:31;-4.10;99.90
12123;DHT22;6125;59.628;17.852;2022-12-10T17:16:01;-4.10;99.90
12123;DHT22;6125;59.628;17.852;2022-12-10T17:18:29;-4.10;99.90
12123;DHT22;6125;59.628;17.852;2022-12-10T17:20:56;-4.10;99.90
12123;DHT22;6125;59.628;17.852;2022-12-10T17:23:25;-4.10;99.90
12123;DHT22;6125;59.628;17.852;2022-12-10T17:25:52;-4.10;99.90
12123;DHT22;6125;59.628;17.852;2022-12-10T17:28:21;-4.10;99.90
12123;DHT22;6125;59.628;17.852;2022-12-10T17:30:49;-4.10;99.90
12123;DHT22;6125;59.628;17.852;2022-12-10T17:33:19;-4.10;99.90
12123;DHT22;6125;59.628;17.852;2022-12-10T17:35:47;-4.10;99.90
12123;DHT22;6125;59.628;17.852;2022-12-10T17:38:16;-4.10;99.90
12123;DHT22;6125;59.628;17.852;2022-12-10T17:40:45;-4.10;99.90
12123;DHT22;6125;59.628;17.852;2022-12-10T17:43:12;-4.10;99.90
12123;DHT22;6125;59.628;17.852;2022-12-10T17:45:40;-4.10;99.90
12123;DHT22;6125;59.628;17.852;2022-12-10T17:48:08;-4.10;99.90
12123;DHT22;6125;59.628;17.852;2022-12-10T17:50:37;-4.10;99.90
12123;DHT22;6125;59.628;17.852;2022-12-10T17:53:06;-4.10;99.90
12123;DHT22;6125;59.628;17.852;2022-12-10T17:55:36;-4.10;99.90
12123;DHT22;6125;59.628;17.852;2022-12-10T17:58:04;-4.10;99.90
12123;DHT22;6125;59.628;17.852;2022-12-10T18:00:34;-4.10;99.90
12123;DHT22;6125;59.628;17.852;2022-12-10T18:03:01;-4.10;99.90
12123;DHT22;6125;59.628;17.852;2022-12-10T18:05:28;-4.20;99.90
12123;DHT22;6125;59.628;17.852;2022-12-10T18:07:55;-4.20;99.90
12123;DHT22;6125;59.628;17.852;2022-12-10T18:10:24;-4.20;99.90
12123;DHT22;6125;59.628;17.852;2022-12-10T18:12:52;-4.20;99.90
12123;DHT22;6125;59.628;17.852;2022-12-10T18:15:25;-4.20;99.90
12123;DHT22;6125;59.628;17.852;2022-12-10T18:17:53;-4.30;99.90
12123;DHT22;6125;59.628;17.852;2022-12-10T18:20:23;-4.30;99.90
12123;DHT22;6125;59.628;17.852;2022-12-10T18:22:51;-4.30;99.90
12123;DHT22;6125;59.628;17.852;2022-12-10T18:25:18;-4.30;99.90
12123;DHT22;6125;59.628;17.852;2022-12-10T18:27:46;-4.30;99.90
12123;DHT22;6125;59.628;17.852;2022-12-10T18:30:15;-4.30;99.90
12123;DHT22;6125;59.628;17.852;2022-12-10T18:32:44;-4.30;99.90
12123;DHT22;6125;59.628;17.852;2022-12-10T18:35:11;-4.30;99.90
12123;DHT22;6125;59.628;17.852;2022-12-10T18:37:39;-4.30;99.90
12123;DHT22;6125;59.628;17.852;2022-12-10T18:40:07;-4.30;99.90
12123;DHT22;6125;59.628;17.852;2022-12-10T18:42:38;-4.30;99.90
12123;DHT22;6125;59.628;17.852;2022-12-10T18:45:05;-4.30;99.90
12123;DHT22;6125;59.628;17.852;2022-12-10T18:47:33;-4.30;99.90
12123;DHT22;6125;59.628;17.852;2022-12-10T18:50:01;-4.40;99.90
12123;DHT22;6125;59.628;17.852;2022-12-10T18:52:29;-4.40;99.90
12123;DHT22;6125;59.628;17.852;2022-12-10T18:54:56;-4.40;99.90
12123;DHT22;6125;59.628;17.852;2022-12-10T18:57:22;-4.40;99.90
12123;DHT22;6125;59.628;17.852;2022-12-10T18:59:49;-4.40;99.90
12123;DHT22;6125;59.628;17.852;2022-12-10T19:02:16;-4.40;99.90
12123;DHT22;6125;59.628;17.852;2022-12-10T19:04:43;-4.40;99.90
12123;DHT22;6125;59.628;17.852;2022-12-10T19:07:12;-4.40;99.90
12123;DHT22;6125;59.628;17.852;2022-12-10T19:09:39;-4.50;99.90
12123;DHT22;6125;59.628;17.852;2022-12-10T19:12:07;-4.40;99.90
12123;DHT22;6125;59.628;17.852;2022-12-10T19:14:35;-4.40;99.90
12123;DHT22;6125;59.628;17.852;2022-12-10T19:17:02;-4.40;99.90
12123;DHT22;6125;59.628;17.852;2022-12-10T19:19:29;-4.50;99.90
12123;DHT22;6125;59.628;17.852;2022-12-10T19:21:56;-4.50;99.90
12123;DHT22;6125;59.628;17.852;2022-12-10T19:24:24;-4.40;99.90
12123;DHT22;6125;59.628;17.852;2022-12-10T19:26:51;-4.50;99.90
12123;DHT22;6125;59.628;17.852;2022-12-10T19:29:20;-4.50;99.90
12123;DHT22;6125;59.628;17.852;2022-12-10T19:31:47;-4.40;99.90
12123;DHT22;6125;59.628;17.852;2022-12-10T19:34:16;-4.40;99.90
12123;DHT22;6125;59.628;17.852;2022-12-10T19:36:43;-4.40;99.90
12123;DHT22;6125;59.628;17.852;2022-12-10T19:39:14;-4.40;99.90
12123;DHT22;6125;59.628;17.852;2022-12-10T19:41:44;-4.40;99.90
12123;DHT22;6125;59.628;17.852;2022-12-10T19:44:11;-4.50;99.90
12123;DHT22;6125;59.628;17.852;2022-12-10T19:46:37;-4.40;99.90
12123;DHT22;6125;59.628;17.852;2022-12-10T19:49:05;-4.40;99.90
12123;DHT22;6125;59.628;17.852;2022-12-10T19:51:32;-4.40;99.90
12123;DHT22;6125;59.628;17.852;2022-12-10T19:53:59;-4.50;99.90
12123;DHT22;6125;59.628;17.852;2022-12-10T19:56:27;-4.50;99.90
12123;DHT22;6125;59.628;17.852;2022-12-10T19:58:58;-4.50;99.90
12123;DHT22;6125;59.628;17.852;2022-12-10T20:01:26;-4.60;99.90
12123;DHT22;6125;59.628;17.852;2022-12-10T20:03:54;-4.60;99.90
12123;DHT22;6125;59.628;17.852;2022-12-10T20:06:24;-4.60;99.90
12123;DHT22;6125;59.628;17.852;2022-12-10T20:08:55;-4.60;99.90
12123;DHT22;6125;59.628;17.852;2022-12-10T20:11:22;-4.60;99.90
12123;DHT22;6125;59.628;17.852;2022-12-10T20:13:49;-4.70;99.90
12123;DHT22;6125;59.628;17.852;2022-12-10T20:16:20;-4.70;99.90
12123;DHT22;6125;59.628;17.852;2022-12-10T20:18:48;-4.80;99.90
12123;DHT22;6125;59.628;17.852;2022-12-10T20:21:16;-4.80;99.90
12123;DHT22;6125;59.628;17.852;2022-12-10T20:23:43;-4.80;99.90
12123;DHT22;6125;59.628;17.852;2022-12-10T20:26:15;-4.90;99.90
12123;DHT22;6125;59.628;17.852;2022-12-10T20:28:42;-4.90;99.90
12123;DHT22;6125;59.628;17.852;2022-12-10T20:31:09;-4.90;99.90
12123;DHT22;6125;59.628;17.852;2022-12-10T20:33:39;-4.90;99.90
12123;DHT22;6125;59.628;17.852;2022-12-10T20:36:09;-4.90;99.90
12123;DHT22;6125;59.628;17.852;2022-12-10T20:38:36;-4.90;99.90
12123;DHT22;6125;59.628;17.852;2022-12-10T20:41:03;-5.00;99.90
12123;DHT22;6125;59.628;17.852;2022-12-10T20:43:32;-4.90;99.90
12123;DHT22;6125;59.628;17.852;2022-12-10T20:45:59;-4.90;99.90
12123;DHT22;6125;59.628;17.852;2022-12-10T20:48:26;-4.90;99.90
12123;DHT22;6125;59.628;17.852;2022-12-10T20:50:55;-4.90;99.90
12123;DHT22;6125;59.628;17.852;2022-12-10T20:53:22;-4.90;99.90
12123;DHT22;6125;59.628;17.852;2022-12-10T20:55:48;-4.90;99.90
12123;DHT22;6125;59.628;17.852;2022-12-10T20:58:15;-4.80;99.90
12123;DHT22;6125;59.628;17.852;2022-12-10T21:00:42;-4.80;99.90
12123;DHT22;6125;59.628;17.852;2022-12-10T21:03:09;-4.80;99.90
12123;DHT22;6125;59.628;17.852;2022-12-10T21:05:36;-4.80;99.90
12123;DHT22;6125;59.628;17.852;2022-12-10T21:08:05;-4.80;99.90
12123;DHT22;6125;59.628;17.852;2022-12-10T21:10:33;-4.80;99.90
12123;DHT22;6125;59.628;17.852;2022-12-10T21:13:21;-4.80;99.90
12123;DHT22;6125;59.628;17.852;2022-12-10T21:15:48;-4.80;99.90
12123;DHT22;6125;59.628;17.852;2022-12-10T21:18:17;-4.80;99.90
12123;DHT22;6125;59.628;17.852;2022-12-10T21:20:44;-4.80;99.90
12123;DHT22;6125;59.628;17.852;2022-12-10T21:23:14;-4.70;99.90
12123;DHT22;6125;59.628;17.852;2022-12-10T21:25:41;-4.70;99.90
12123;DHT22;6125;59.628;17.852;2022-12-10T21:28:08;-4.70;99.90
12123;DHT22;6125;59.628;17.852;2022-12-10T21:30:36;-4.70;99.90
12123;DHT22;6125;59.628;17.852;2022-12-10T21:33:04;-4.70;99.90
12123;DHT22;6125;59.628;17.852;2022-12-10T21:35:31;-4.70;99.90
12123;DHT22;6125;59.628;17.852;2022-12-10T21:37:58;-4.70;99.90
12123;DHT22;6125;59.628;17.852;2022-12-10T21:40:28;-4.70;99.90
12123;DHT22;6125;59.628;17.852;2022-12-10T21:42:55;-4.70;99.90
12123;DHT22;6125;59.628;17.852;2022-12-10T21:45:43;-4.70;99.90
12123;DHT22;6125;59.628;17.852;2022-12-10T21:48:12;-4.60;99.90
12123;DHT22;6125;59.628;17.852;2022-12-10T21:50:40;-4.60;99.90
12123;DHT22;6125;59.628;17.852;2022-12-10T21:53:07;-4.50;99.90
12123;DHT22;6125;59.628;17.852;2022-12-10T21:55:37;-4.50;99.90
12123;DHT22;6125;59.628;17.852;2022-12-10T21:58:07;-4.50;99.90
12123;DHT22;6125;59.628;17.852;2022-12-10T22:00:34;-4.50;99.90
12123;DHT22;6125;59.628;17.852;2022-12-10T22:03:01;-4.50;99.90
12123;DHT22;6125;59.628;17.852;2022-12-10T22:05:28;-4.50;99.90
12123;DHT22;6125;59.628;17.852;2022-12-10T22:07:55;-4.50;99.90
12123;DHT22;6125;59.628;17.852;2022-12-10T22:10:22;-4.40;99.90
12123;DHT22;6125;59.628;17.852;2022-12-10T22:12:50;-4.40;99.90
12123;DHT22;6125;59.628;17.852;2022-12-10T22:15:17;-4.40;99.90
12123;DHT22;6125;59.628;17.852;2022-12-10T22:17:44;-4.40;99.90
12123;DHT22;6125;59.628;17.852;2022-12-10T22:20:12;-4.40;99.90
12123;DHT22;6125;59.628;17.852;2022-12-10T22:22:39;-4.40;99.90
12123;DHT22;6125;59.628;17.852;2022-12-10T22:25:06;-4.40;99.90
12123;DHT22;6125;59.628;17.852;2022-12-10T22:27:33;-4.40;99.90
12123;DHT22;6125;59.628;17.852;2022-12-10T22:30:02;-4.40;99.90
12123;DHT22;6125;59.628;17.852;2022-12-10T22:32:30;-4.40;99.90
12123;DHT22;6125;59.628;17.852;2022-12-10T22:34:57;-4.50;99.90
12123;DHT22;6125;59.628;17.852;2022-12-10T22:37:24;-4.50;99.90
12123;DHT22;6125;59.628;17.852;2022-12-10T22:39:51;-4.50;99.90
12123;DHT22;6125;59.628;17.852;2022-12-10T22:42:19;-4.50;99.90
12123;DHT22;6125;59.628;17.852;2022-12-10T22:44:46;-4.60;99.90
12123;DHT22;6125;59.628;17.852;2022-12-10T22:47:14;-4.60;99.90
12123;DHT22;6125;59.628;17.852;2022-12-10T22:49:41;-4.60;99.90
12123;DHT22;6125;59.628;17.852;2022-12-10T22:52:08;-4.60;99.90
12123;DHT22;6125;59.628;17.852;2022-12-10T22:54:35;-4.60;99.90
12123;DHT22;6125;59.628;17.852;2022-12-10T22:57:02;-4.60;99.90
12123;DHT22;6125;59.628;17.852;2022-12-10T22:59:29;-4.60;99.90
12123;DHT22;6125;59.628;17.852;2022-12-10T23:01:56;-4.60;99.90
12123;DHT22;6125;59.628;17.852;2022-12-10T23:04:24;-4.70;99.90
12123;DHT22;6125;59.628;17.852;2022-12-10T23:06:51;-4.80;99.90
12123;DHT22;6125;59.628;17.852;2022-12-10T23:09:18;-4.80;99.90
12123;DHT22;6125;59.628;17.852;2022-12-10T23:11:45;-4.80;99.90
12123;DHT22;6125;59.628;17.852;2022-12-10T23:14:27;-4.80;99.90
12123;DHT22;6125;59.628;17.852;2022-12-10T23:16:55;-4.90;99.90
12123;DHT22;6125;59.628;17.852;2022-12-10T23:19:21;-4.90;99.90
12123;DHT22;6125;59.628;17.852;2022-12-10T23:21:50;-4.90;99.90
12123;DHT22;6125;59.628;17.852;2022-12-10T23:24:17;-4.90;99.90
12123;DHT22;6125;59.628;17.852;2022-12-10T23:26:44;-4.80;99.90
12123;DHT22;6125;59.628;17.852;2022-12-10T23:29:11;-4.80;99.90
12123;DHT22;6125;59.628;17.852;2022-12-10T23:31:38;-4.80;99.90
12123;DHT22;6125;59.628;17.852;2022-12-10T23:34:05;-4.80;99.90
12123;DHT22;6125;59.628;17.852;2022-12-10T23:36:32;-4.80;99.90
12123;DHT22;6125;59.628;17.852;2022-12-10T23:39:00;-4.70;99.90
12123;DHT22;6125;59.628;17.852;2022-12-10T23:41:27;-4.80;99.90
12123;DHT22;6125;59.628;17.852;2022-12-10T23:43:54;-4.80;99.90
12123;DHT22;6125;59.628;17.852;2022-12-10T23:46:21;-4.90;99.90
12123;DHT22;6125;59.628;17.852;2022-12-10T23:48:48;-4.90;99.90
12123;DHT22;6125;59.628;17.852;2022-12-10T23:51:15;-4.90;99.90
12123;DHT22;6125;59.628;17.852;2022-12-10T23:53:42;-4.90;99.90
12123;DHT22;6125;59.628;17.852;2022-12-10T23:56:15;-4.90;99.90
12123;DHT22;6125;59.628;17.852;2022-12-10T23:58:44;-4.90;99.90
